Time;durP1;ratioP1;P1;durP2;ratioP2;P2;SDS_P1;SDS_P2;PMS_P1;PMS_P2;Temp;Humidity;BMP_temperature;BMP_pressure;BME280_temperature;BME280_humidity;BME280_pressure;Samples;Min_cycle;Max_cycle;Signal;HPM_P1;HPM_P2
2022/01/22 00:00:36;;;;;;;10.82;1.38;;;;;;;;;;4973347;28;20030;-59
2022/01/22 00:03:03;;;;;;;21.42;2.55;;;;;;;;;;4955839;28;20027;-59
2022/01/22 00:05:33;;;;;;;21.67;2.38;;;;;;;;;;4959956;28;20035;-59
2022/01/22 00:08:01;;;;;;;20.48;1.63;;;;;;;;;;4956396;28;20034;-59
2022/01/22 00:10:29;;;;;;;15.02;1.60;;;;;;;;;;4957855;28;20430;-58
2022/01/22 00:15:30;;;;;;;13.40;1.90;;;;;;;;;;4956341;28;20042;-60
2022/01/22 00:18:01;;;;;;;8.73;1.35;;;;;;;;;;4959138;28;20742;-59
2022/01/22 00:20:31;;;;;;;15.52;1.95;;;;;;;;;;4954267;28;20426;-59
2022/01/22 00:23:01;;;;;;;19.92;2.72;;;;;;;;;;4957505;28;20030;-59
2022/01/22 00:25:32;;;;;;;7.07;1.25;;;;;;;;;;4942829;28;20051;-59
2022/01/22 00:28:01;;;;;;;22.83;1.95;;;;;;;;;;4959614;28;20791;-59
2022/01/22 00:30:26;;;;;;;22.65;1.85;;;;;;;;;;4957491;28;20027;-59
2022/01/22 00:32:54;;;;;;;14.70;1.80;;;;;;;;;;4960671;28;20038;-59
2022/01/22 00:35:23;;;;;;;12.60;1.70;;;;;;;;;;4961295;28;20026;-59
2022/01/22 00:37:50;;;;;;;21.00;1.77;;;;;;;;;;4961262;28;20034;-59
2022/01/22 00:40:21;;;;;;;16.13;1.73;;;;;;;;;;4960646;28;20581;-59
2022/01/22 00:42:49;;;;;;;9.32;1.80;;;;;;;;;;4960659;28;20042;-59
2022/01/22 00:45:15;;;;;;;11.45;1.20;;;;;;;;;;4965099;28;20058;-59
2022/01/22 00:47:45;;;;;;;12.43;1.48;;;;;;;;;;4960616;28;20076;-59
2022/01/22 00:50:43;;;;;;;16.17;2.17;;;;;;;;;;4958767;28;20053;-59
2022/01/22 00:53:13;;;;;;;11.75;1.42;;;;;;;;;;4965628;28;20043;-59
2022/01/22 00:55:38;;;;;;;8.18;1.20;;;;;;;;;;4963835;28;20035;-58
2022/01/22 00:58:09;;;;;;;7.47;1.17;;;;;;;;;;4948357;28;20027;-59
2022/01/22 01:00:34;;;;;;;11.75;1.30;;;;;;;;;;4974378;28;20149;-59
2022/01/22 01:03:02;;;;;;;14.13;1.70;;;;;;;;;;4957825;28;20727;-59
2022/01/22 01:05:32;;;;;;;11.15;1.02;;;;;;;;;;4963824;28;20038;-58
2022/01/22 01:08:00;;;;;;;8.82;1.52;;;;;;;;;;4959421;28;20606;-58
2022/01/22 01:10:28;;;;;;;20.48;2.17;;;;;;;;;;4966508;28;20038;-59
2022/01/22 01:12:53;;;;;;;12.05;1.77;;;;;;;;;;4958309;28;20035;-59
2022/01/22 01:32:07;;;;;;;11.00;1.33;;;;;;;;;;4960267;28;20051;-58
2022/01/22 01:34:39;;;;;;;5.50;0.98;;;;;;;;;;4982389;28;20026;-58
2022/01/22 01:37:07;;;;;;;8.27;1.30;;;;;;;;;;4981477;28;20048;-58
2022/01/22 01:39:34;;;;;;;16.70;1.52;;;;;;;;;;4980842;28;20874;-58
2022/01/22 01:42:08;;;;;;;11.13;1.52;;;;;;;;;;4965233;28;20042;-59
2022/01/22 01:44:36;;;;;;;8.00;0.88;;;;;;;;;;4978742;28;20042;-58
2022/01/22 01:47:06;;;;;;;3.10;0.85;;;;;;;;;;4969747;28;20101;-58
2022/01/22 01:49:39;;;;;;;12.15;1.08;;;;;;;;;;4961894;28;20095;-58
2022/01/22 01:52:07;;;;;;;9.93;0.93;;;;;;;;;;4980169;28;20029;-57
2022/01/22 01:54:48;;;;;;;9.75;1.13;;;;;;;;;;4980785;28;20053;-58
2022/01/22 01:57:38;;;;;;;17.77;1.25;;;;;;;;;;4957817;28;20299;-58
2022/01/22 02:00:07;;;;;;;8.68;1.55;;;;;;;;;;4980003;28;20070;-58
2022/01/22 02:02:36;;;;;;;9.70;0.85;;;;;;;;;;4979178;28;20030;-58
2022/01/22 02:05:02;;;;;;;16.00;1.40;;;;;;;;;;4967629;28;20038;-58
2022/01/22 02:07:37;;;;;;;6.20;1.10;;;;;;;;;;4979363;28;20022;-59
2022/01/22 02:10:07;;;;;;;9.38;1.27;;;;;;;;;;4963348;28;20477;-58
2022/01/22 02:26:09;;;;;;;14.48;1.02;;;;;;;;;;4966137;28;20735;-57
2022/01/22 02:28:35;;;;;;;2.80;0.70;;;;;;;;;;4965430;28;20864;-58
2022/01/22 02:33:45;;;;;;;13.45;1.77;;;;;;;;;;4978609;28;20030;-57
2022/01/22 02:39:15;;;;;;;6.88;1.02;;;;;;;;;;4976953;28;20026;-57
2022/01/22 02:41:51;;;;;;;12.18;0.82;;;;;;;;;;4976923;28;20516;-57
2022/01/22 02:45:06;;;;;;;12.73;1.25;;;;;;;;;;4953530;28;21297;-58
2022/01/22 02:47:14;;;;;;;7.85;0.82;;;;;;;;;;4969603;28;20770;-58
2022/01/22 02:49:42;;;;;;;7.05;1.00;;;;;;;;;;4966477;28;20089;-57
2022/01/22 02:52:11;;;;;;;7.78;0.80;;;;;;;;;;4977844;28;20046;-58
2022/01/22 02:54:43;;;;;;;4.32;1.10;;;;;;;;;;4966053;28;20034;-58
2022/01/22 02:57:10;;;;;;;1.73;0.80;;;;;;;;;;4977247;28;20140;-58
2022/01/22 02:59:35;;;;;;;8.65;1.10;;;;;;;;;;4961454;28;20049;-57
2022/01/22 03:02:06;;;;;;;4.57;0.85;;;;;;;;;;4978353;28;20580;-58
2022/01/22 03:04:32;;;;;;;4.93;0.95;;;;;;;;;;4978264;28;20030;-57
2022/01/22 03:07:01;;;;;;;3.47;0.75;;;;;;;;;;4977451;28;21084;-58
2022/01/22 03:09:32;;;;;;;13.02;1.00;;;;;;;;;;4977883;28;20168;-57
2022/01/22 03:27:44;;;;;;;12.25;1.08;;;;;;;;;;4977120;28;20462;-58
2022/01/22 03:30:15;;;;;;;6.40;1.08;;;;;;;;;;4949503;28;20034;-59
2022/01/22 03:32:50;;;;;;;8.15;1.13;;;;;;;;;;4977514;28;20026;-60
2022/01/22 03:37:44;;;;;;;3.42;0.75;;;;;;;;;;4976816;28;20041;-59
2022/01/22 03:40:13;;;;;;;8.35;0.98;;;;;;;;;;4963477;28;20038;-57
2022/01/22 03:42:40;;;;;;;5.68;0.40;;;;;;;;;;4960386;28;20033;-57
2022/01/22 03:45:10;;;;;;;6.97;0.80;;;;;;;;;;4979615;28;20045;-57
2022/01/22 03:47:39;;;;;;;13.75;1.15;;;;;;;;;;4977739;28;20501;-57
2022/01/22 03:50:05;;;;;;;11.85;1.50;;;;;;;;;;4943259;28;20050;-56
2022/01/22 03:52:33;;;;;;;7.25;1.08;;;;;;;;;;4975677;28;20035;-57
2022/01/22 03:54:58;;;;;;;1.67;0.80;;;;;;;;;;4977187;28;20160;-57
2022/01/22 03:57:24;;;;;;;8.05;0.80;;;;;;;;;;4957229;28;21083;-57
2022/01/22 03:59:52;;;;;;;4.05;0.80;;;;;;;;;;4978413;28;20036;-57
2022/01/22 04:05:02;;;;;;;3.20;1.02;;;;;;;;;;4977695;28;20117;-57
2022/01/22 04:10:03;;;;;;;3.00;1.02;;;;;;;;;;4980647;28;20073;-57
2022/01/22 04:12:49;;;;;;;10.73;1.02;;;;;;;;;;4980113;28;20754;-57
2022/01/22 04:15:18;;;;;;;2.55;0.73;;;;;;;;;;4961147;28;20034;-57
2022/01/22 04:26:10;;;;;;;1.65;0.50;;;;;;;;;;4980606;28;20442;-57
2022/01/22 04:28:35;;;;;;;9.93;0.85;;;;;;;;;;4967438;28;20080;-57
2022/01/22 04:31:00;;;;;;;3.03;0.32;;;;;;;;;;4968323;28;20130;-57
2022/01/22 04:33:28;;;;;;;6.07;0.60;;;;;;;;;;4954352;28;20026;-58
2022/01/22 04:35:59;;;;;;;5.78;0.80;;;;;;;;;;4980504;28;20022;-57
2022/01/22 04:38:26;;;;;;;4.13;0.40;;;;;;;;;;4972920;28;20121;-57
2022/01/22 04:40:58;;;;;;;5.63;0.52;;;;;;;;;;4981007;28;20042;-57
2022/01/22 04:43:23;;;;;;;6.60;0.93;;;;;;;;;;4979813;28;20045;-57
2022/01/22 04:45:56;;;;;;;12.10;0.80;;;;;;;;;;4939539;28;20030;-57
2022/01/22 04:56:21;;;;;;;5.88;0.80;;;;;;;;;;4979076;28;20047;-58
2022/01/22 04:58:47;;;;;;;7.25;1.02;;;;;;;;;;4946886;28;20041;-57
2022/01/22 05:01:15;;;;;;;1.77;0.55;;;;;;;;;;4980014;28;20408;-58
2022/01/22 05:03:46;;;;;;;5.03;0.57;;;;;;;;;;4979748;28;20030;-57
2022/01/22 05:06:12;;;;;;;8.48;0.98;;;;;;;;;;4980209;28;20058;-57
2022/01/22 05:08:44;;;;;;;4.13;1.00;;;;;;;;;;4963854;28;20037;-56
2022/01/22 05:11:12;;;;;;;9.50;1.10;;;;;;;;;;4963962;28;20862;-57
2022/01/22 05:13:38;;;;;;;17.50;1.10;;;;;;;;;;4979852;28;20055;-58
2022/01/22 05:16:06;;;;;;;7.63;1.10;;;;;;;;;;4968361;28;20042;-58
2022/01/22 05:18:41;;;;;;;13.23;1.05;;;;;;;;;;4980207;28;20032;-58
2022/01/22 05:21:10;;;;;;;9.52;1.10;;;;;;;;;;4969637;28;20189;-57
2022/01/22 05:23:38;;;;;;;6.30;0.88;;;;;;;;;;4979857;28;20608;-57
2022/01/22 05:26:23;;;;;;;8.50;0.93;;;;;;;;;;4978289;28;20057;-58
2022/01/22 05:29:17;;;;;;;10.45;0.98;;;;;;;;;;4965762;28;20062;-57
2022/01/22 05:37:08;;;;;;;3.83;0.70;;;;;;;;;;4977759;28;20038;-58
2022/01/22 05:39:34;;;;;;;14.77;0.90;;;;;;;;;;4960944;28;20054;-57
2022/01/22 05:42:01;;;;;;;7.68;0.85;;;;;;;;;;4962428;28;21147;-58
2022/01/22 05:44:27;;;;;;;7.00;0.85;;;;;;;;;;4977732;28;20073;-57
2022/01/22 05:46:56;;;;;;;6.13;1.13;;;;;;;;;;4969234;28;20056;-58
2022/01/22 05:49:31;;;;;;;16.20;0.93;;;;;;;;;;4979583;28;20045;-57
2022/01/22 05:51:59;;;;;;;7.75;0.80;;;;;;;;;;4953443;28;20104;-58
2022/01/22 05:59:44;;;;;;;6.80;1.23;;;;;;;;;;4979245;28;20081;-57
2022/01/22 06:02:11;;;;;;;7.30;1.08;;;;;;;;;;4968840;28;20046;-58
2022/01/22 06:04:40;;;;;;;8.45;0.77;;;;;;;;;;4966586;28;20588;-58
2022/01/22 06:07:07;;;;;;;14.73;0.98;;;;;;;;;;4978366;28;20042;-58
2022/01/22 06:09:38;;;;;;;12.00;1.33;;;;;;;;;;4979568;28;20149;-58
2022/01/22 06:14:34;;;;;;;10.75;1.38;;;;;;;;;;4978330;28;20037;-57
2022/01/22 06:17:01;;;;;;;7.65;1.30;;;;;;;;;;4978568;28;20041;-58
2022/01/22 06:19:30;;;;;;;6.20;1.02;;;;;;;;;;4968077;28;20030;-57
2022/01/22 06:21:56;;;;;;;4.80;0.63;;;;;;;;;;4977628;28;20034;-58
2022/01/22 06:24:24;;;;;;;7.88;1.15;;;;;;;;;;4969530;28;20022;-57
2022/01/22 06:26:52;;;;;;;2.95;0.80;;;;;;;;;;4976294;28;20038;-58
2022/01/22 06:29:25;;;;;;;3.15;0.68;;;;;;;;;;4975637;28;20042;-57
2022/01/22 06:31:51;;;;;;;5.13;1.05;;;;;;;;;;4977152;28;20050;-58
2022/01/22 06:34:16;;;;;;;9.20;0.95;;;;;;;;;;4954048;28;20049;-59
2022/01/22 06:36:42;;;;;;;6.22;1.23;;;;;;;;;;4976040;28;20052;-58
2022/01/22 06:39:16;;;;;;;2.88;0.75;;;;;;;;;;4965266;28;20030;-57
2022/01/22 06:41:46;;;;;;;8.95;1.20;;;;;;;;;;4965419;28;20030;-58
2022/01/22 06:44:12;;;;;;;18.55;1.20;;;;;;;;;;4974916;28;20065;-57
2022/01/22 06:46:37;;;;;;;1.42;0.63;;;;;;;;;;4967627;28;20133;-58
2022/01/22 06:49:05;;;;;;;4.82;1.00;;;;;;;;;;4978554;28;20042;-57
2022/01/22 06:51:34;;;;;;;13.30;1.33;;;;;;;;;;4978803;28;20038;-59
2022/01/22 06:54:00;;;;;;;3.20;0.93;;;;;;;;;;4978355;28;20112;-58
2022/01/22 06:56:30;;;;;;;3.90;0.73;;;;;;;;;;4961098;28;20044;-58
2022/01/22 06:58:58;;;;;;;4.45;0.82;;;;;;;;;;4962226;28;20112;-58
2022/01/22 07:01:24;;;;;;;6.03;0.95;;;;;;;;;;4965480;28;20172;-57
2022/01/22 07:03:50;;;;;;;16.65;1.13;;;;;;;;;;4979737;28;20034;-57
2022/01/22 07:06:15;;;;;;;4.10;0.80;;;;;;;;;;4965208;28;20323;-57
2022/01/22 07:08:43;;;;;;;5.75;0.60;;;;;;;;;;4949977;28;20460;-57
2022/01/22 07:11:11;;;;;;;0.90;0.35;;;;;;;;;;4977357;28;20034;-57
2022/01/22 07:13:37;;;;;;;4.55;0.40;;;;;;;;;;4977650;28;20042;-57
2022/01/22 07:16:08;;;;;;;2.22;0.88;;;;;;;;;;4961756;28;20038;-58
2022/01/22 07:18:36;;;;;;;3.97;0.90;;;;;;;;;;4977825;28;20113;-58
2022/01/22 07:21:09;;;;;;;3.60;1.20;;;;;;;;;;4975971;28;20086;-58
2022/01/22 07:26:03;;;;;;;10.77;1.38;;;;;;;;;;4960549;28;20060;-56
2022/01/22 07:28:31;;;;;;;2.80;0.90;;;;;;;;;;4975795;28;20025;-56
2022/01/22 07:30:59;;;;;;;3.08;0.55;;;;;;;;;;4965197;28;20032;-57
2022/01/22 07:33:30;;;;;;;4.78;1.05;;;;;;;;;;4977803;28;20030;-57
2022/01/22 07:35:58;;;;;;;2.00;0.80;;;;;;;;;;4960598;28;20034;-57
2022/01/22 07:38:23;;;;;;;5.45;0.70;;;;;;;;;;4961443;28;20084;-57
2022/01/22 07:40:49;;;;;;;3.95;0.98;;;;;;;;;;4978787;28;20026;-57
2022/01/22 07:43:17;;;;;;;8.48;1.02;;;;;;;;;;4965477;28;21885;-56
2022/01/22 07:45:45;;;;;;;6.00;0.93;;;;;;;;;;4976823;28;20040;-57
2022/01/22 07:48:11;;;;;;;6.57;0.85;;;;;;;;;;4976917;28;20714;-57
2022/01/22 07:50:37;;;;;;;6.78;0.88;;;;;;;;;;4977621;28;20044;-57
2022/01/22 07:53:04;;;;;;;3.35;0.60;;;;;;;;;;4977214;28;20061;-56
2022/01/22 07:55:32;;;;;;;1.83;0.70;;;;;;;;;;4975555;28;20120;-58
2022/01/22 07:58:00;;;;;;;7.45;0.90;;;;;;;;;;4976151;28;20784;-58
2022/01/22 08:00:28;;;;;;;3.00;0.57;;;;;;;;;;4966444;28;20254;-57
2022/01/22 08:02:53;;;;;;;9.30;1.05;;;;;;;;;;4948034;28;20163;-59
2022/01/22 08:05:21;;;;;;;3.72;0.80;;;;;;;;;;4964364;28;20105;-58
2022/01/22 08:07:48;;;;;;;5.32;0.60;;;;;;;;;;4944354;28;20141;-57
2022/01/22 08:10:17;;;;;;;3.42;0.55;;;;;;;;;;4958774;28;20172;-58
2022/01/22 08:12:48;;;;;;;6.13;0.77;;;;;;;;;;4975968;28;20029;-58
2022/01/22 08:15:15;;;;;;;13.00;0.80;;;;;;;;;;4945886;28;20040;-60
2022/01/22 08:17:40;;;;;;;3.72;1.05;;;;;;;;;;4978086;28;20036;-58
2022/01/22 08:20:11;;;;;;;5.53;0.82;;;;;;;;;;4977250;28;20488;-58
2022/01/22 08:22:39;;;;;;;6.15;0.90;;;;;;;;;;4945010;28;20030;-57
2022/01/22 08:25:07;;;;;;;10.52;0.60;;;;;;;;;;4961974;28;20057;-58
2022/01/22 08:27:41;;;;;;;6.22;0.65;;;;;;;;;;4975599;28;20038;-55
2022/01/22 08:30:09;;;;;;;4.75;0.70;;;;;;;;;;4951153;28;20053;-57
2022/01/22 08:37:50;;;;;;;7.70;0.70;;;;;;;;;;4959306;28;20507;-59
2022/01/22 08:40:15;;;;;;;6.82;0.77;;;;;;;;;;4975412;28;20026;-59
2022/01/22 08:42:45;;;;;;;8.85;1.13;;;;;;;;;;4958354;28;20052;-57
2022/01/22 08:45:17;;;;;;;8.57;1.25;;;;;;;;;;4958909;28;20109;-62
2022/01/22 08:47:46;;;;;;;6.10;1.38;;;;;;;;;;4973895;28;20046;-58
2022/01/22 08:50:14;;;;;;;5.13;0.80;;;;;;;;;;4976501;28;20045;-57
2022/01/22 08:52:44;;;;;;;3.45;0.30;;;;;;;;;;4962697;28;20148;-59
2022/01/22 08:55:10;;;;;;;11.05;0.60;;;;;;;;;;4960828;28;20041;-57
2022/01/22 08:57:38;;;;;;;1.35;0.45;;;;;;;;;;4965446;28;20049;-58
2022/01/22 09:00:09;;;;;;;1.70;0.57;;;;;;;;;;4980518;28;20030;-58
2022/01/22 09:02:35;;;;;;;7.75;0.88;;;;;;;;;;4963443;28;20367;-59
2022/01/22 09:05:03;;;;;;;6.68;0.80;;;;;;;;;;4980621;28;20114;-58
2022/01/22 09:07:33;;;;;;;5.65;1.30;;;;;;;;;;4968914;28;20116;-59
2022/01/22 09:09:58;;;;;;;5.97;0.63;;;;;;;;;;4964670;28;20788;-58
2022/01/22 09:12:29;;;;;;;5.07;0.68;;;;;;;;;;4965876;28;20034;-59
2022/01/22 09:14:55;;;;;;;7.30;1.05;;;;;;;;;;4965602;28;20412;-57
2022/01/22 09:17:21;;;;;;;4.43;0.80;;;;;;;;;;4967691;28;20034;-59
2022/01/22 09:19:47;;;;;;;3.47;0.35;;;;;;;;;;4979909;28;20053;-58
2022/01/22 09:22:13;;;;;;;4.00;0.50;;;;;;;;;;4979569;28;20931;-58
2022/01/22 09:24:41;;;;;;;6.13;0.43;;;;;;;;;;4979057;28;20042;-59
2022/01/22 09:27:07;;;;;;;6.00;0.80;;;;;;;;;;4967264;28;20038;-58
2022/01/22 09:29:34;;;;;;;5.88;0.80;;;;;;;;;;4961174;28;20154;-58
2022/01/22 09:31:59;;;;;;;7.53;1.20;;;;;;;;;;4978079;28;20036;-59
2022/01/22 09:34:25;;;;;;;10.10;0.90;;;;;;;;;;4978830;28;20034;-58
2022/01/22 09:36:51;;;;;;;3.17;0.75;;;;;;;;;;4978484;28;20050;-57
2022/01/22 09:39:21;;;;;;;2.25;0.80;;;;;;;;;;4966079;28;20409;-58
2022/01/22 09:41:48;;;;;;;13.23;1.58;;;;;;;;;;4978414;28;20042;-57
2022/01/22 09:44:16;;;;;;;2.40;0.80;;;;;;;;;;4969821;28;20068;-58
2022/01/22 09:46:45;;;;;;;11.75;1.08;;;;;;;;;;4959032;28;20453;-57
2022/01/22 09:49:11;;;;;;;13.32;1.27;;;;;;;;;;4977852;28;20147;-57
2022/01/22 09:51:39;;;;;;;11.30;1.30;;;;;;;;;;4980624;28;20465;-58
2022/01/22 09:54:11;;;;;;;7.40;0.75;;;;;;;;;;4980276;28;20026;-58
2022/01/22 09:56:37;;;;;;;11.57;1.40;;;;;;;;;;4970200;28;20601;-58
2022/01/22 09:59:04;;;;;;;4.57;0.77;;;;;;;;;;4962179;28;20856;-57
2022/01/22 10:01:31;;;;;;;7.93;1.08;;;;;;;;;;4978231;28;20062;-58
2022/01/22 10:03:58;;;;;;;7.22;1.15;;;;;;;;;;4965040;28;20037;-58
2022/01/22 10:06:28;;;;;;;4.30;0.52;;;;;;;;;;4978244;28;20038;-58
2022/01/22 10:09:12;;;;;;;3.35;0.57;;;;;;;;;;4962369;28;20021;-58
2022/01/22 10:11:40;;;;;;;9.43;1.52;;;;;;;;;;4977694;28;20039;-58
2022/01/22 10:14:05;;;;;;;2.30;0.40;;;;;;;;;;4960478;28;20116;-58
2022/01/22 10:16:35;;;;;;;15.65;1.15;;;;;;;;;;4942087;28;20046;-58
2022/01/22 10:19:11;;;;;;;9.15;1.20;;;;;;;;;;4979172;28;20025;-58
2022/01/22 10:21:40;;;;;;;9.32;1.25;;;;;;;;;;4962199;28;20033;-58
2022/01/22 10:24:26;;;;;;;8.30;1.02;;;;;;;;;;4978270;28;20361;-57
2022/01/22 10:27:19;;;;;;;8.27;0.90;;;;;;;;;;4966283;28;20168;-58
2022/01/22 10:29:54;;;;;;;4.25;0.88;;;;;;;;;;4964113;28;20030;-59
2022/01/22 10:32:50;;;;;;;1.15;0.70;;;;;;;;;;4973300;28;20041;-57
2022/01/22 10:35:23;;;;;;;7.50;0.82;;;;;;;;;;4976676;28;20137;-57
2022/01/22 10:37:53;;;;;;;5.38;1.10;;;;;;;;;;4976162;28;20034;-57
2022/01/22 10:40:23;;;;;;;3.58;1.05;;;;;;;;;;4978682;28;20030;-57
2022/01/22 10:42:53;;;;;;;5.60;1.30;;;;;;;;;;4960156;28;20692;-58
2022/01/22 10:45:29;;;;;;;11.25;1.42;;;;;;;;;;4969260;28;20041;-58
2022/01/22 10:48:15;;;;;;;6.82;1.20;;;;;;;;;;4976135;28;20038;-58
2022/01/22 10:50:43;;;;;;;4.93;1.00;;;;;;;;;;4975813;28;20673;-57
2022/01/22 10:53:10;;;;;;;6.13;1.23;;;;;;;;;;4976452;28;20057;-57
2022/01/22 10:55:55;;;;;;;3.55;1.00;;;;;;;;;;4977626;28;20118;-58
2022/01/22 10:58:20;;;;;;;6.60;1.00;;;;;;;;;;4974359;28;20046;-58
2022/01/22 11:00:57;;;;;;;2.97;1.05;;;;;;;;;;4967383;28;20339;-59
2022/01/22 11:03:28;;;;;;;3.35;0.90;;;;;;;;;;4964525;28;20045;-58
2022/01/22 11:06:06;;;;;;;4.68;1.15;;;;;;;;;;4945379;28;20590;-57
2022/01/22 11:08:33;;;;;;;4.90;1.73;;;;;;;;;;4975901;28;20554;-58
2022/01/22 11:11:04;;;;;;;4.35;1.13;;;;;;;;;;4976627;28;20090;-59
2022/01/22 11:13:34;;;;;;;7.68;1.20;;;;;;;;;;4960315;28;20065;-57
2022/01/22 11:16:00;;;;;;;4.97;1.10;;;;;;;;;;4977065;28;20120;-57
2022/01/22 11:18:30;;;;;;;6.85;1.02;;;;;;;;;;4977150;28;20041;-57
2022/01/22 11:20:56;;;;;;;3.70;1.15;;;;;;;;;;4966953;28;20535;-58
2022/01/22 11:23:23;;;;;;;4.15;1.27;;;;;;;;;;4960324;28;20046;-58
2022/01/22 11:25:50;;;;;;;20.15;2.03;;;;;;;;;;4976887;28;20673;-58
2022/01/22 11:28:19;;;;;;;8.73;1.48;;;;;;;;;;4959745;28;20133;-58
2022/01/22 11:30:48;;;;;;;9.05;1.30;;;;;;;;;;4976031;28;20638;-58
2022/01/22 11:33:17;;;;;;;9.00;1.63;;;;;;;;;;4977545;28;20026;-59
2022/01/22 11:35:51;;;;;;;11.30;1.50;;;;;;;;;;4965954;28;20037;-58
2022/01/22 11:38:25;;;;;;;9.18;1.92;;;;;;;;;;4977441;28;20117;-58
2022/01/22 11:41:06;;;;;;;12.43;1.60;;;;;;;;;;4976532;28;20030;-59
2022/01/22 11:43:58;;;;;;;8.13;1.23;;;;;;;;;;4976966;28;20030;-58
2022/01/22 11:46:32;;;;;;;15.55;1.42;;;;;;;;;;4959271;28;20045;-58
2022/01/22 11:49:17;;;;;;;12.40;1.40;;;;;;;;;;4975592;28;20044;-57
2022/01/22 11:51:46;;;;;;;2.70;1.23;;;;;;;;;;4960268;28;20039;-57
2022/01/22 11:54:13;;;;;;;9.82;1.88;;;;;;;;;;4975702;28;20026;-57
2022/01/22 11:56:41;;;;;;;14.10;1.80;;;;;;;;;;4964530;28;20064;-57
2022/01/22 11:59:22;;;;;;;5.97;1.70;;;;;;;;;;4974765;28;20034;-57
2022/01/22 12:01:56;;;;;;;4.85;2.03;;;;;;;;;;4975156;28;20080;-57
2022/01/22 12:04:31;;;;;;;10.13;2.15;;;;;;;;;;4976653;28;20044;-58
2022/01/22 12:06:56;;;;;;;;;;;;;;;;;;4976437;28;20113;-57
2022/01/22 12:09:26;;;;;;;5.65;2.08;;;;;;;;;;4962521;28;19917;-57
2022/01/22 12:14:47;;;;;;;12.25;3.08;;;;;;;;;;4975840;28;20038;-58
2022/01/22 12:17:29;;;;;;;12.40;2.50;;;;;;;;;;4960956;28;20038;-58
2022/01/22 12:22:29;;;;;;;10.65;2.75;;;;;;;;;;4975267;28;20880;-57
2022/01/22 12:24:54;;;;;;;9.30;2.42;;;;;;;;;;4974762;28;20049;-57
2022/01/22 12:27:43;;;;;;;10.90;1.98;;;;;;;;;;4954936;28;20049;-58
2022/01/22 12:30:09;;;;;;;16.48;2.17;;;;;;;;;;4959972;28;20046;-59
2022/01/22 12:32:44;;;;;;;13.82;2.72;;;;;;;;;;4963659;28;20074;-58
2022/01/22 12:35:11;;;;;;;8.75;2.53;;;;;;;;;;4980413;28;20061;-58
2022/01/22 12:37:41;;;;;;;18.27;3.13;;;;;;;;;;4978415;28;20030;-59
2022/01/22 12:40:13;;;;;;;14.00;2.50;;;;;;;;;;4971328;28;20054;-59
2022/01/22 12:42:53;;;;;;;14.68;2.75;;;;;;;;;;4959491;28;20826;-58
2022/01/22 12:45:24;;;;;;;5.60;1.95;;;;;;;;;;4967257;28;20576;-59
2022/01/22 12:47:50;;;;;;;11.18;2.30;;;;;;;;;;4959580;28;20038;-58
2022/01/22 12:50:25;;;;;;;7.70;2.03;;;;;;;;;;4973117;28;20030;-59
2022/01/22 12:52:51;;;;;;;17.10;2.50;;;;;;;;;;4961146;28;20120;-59
2022/01/22 12:55:23;;;;;;;14.77;2.10;;;;;;;;;;4959869;28;20049;-57
2022/01/22 12:57:49;;;;;;;9.77;1.83;;;;;;;;;;4976034;28;21034;-59
2022/01/22 13:00:17;;;;;;;13.00;2.10;;;;;;;;;;4963353;28;20092;-57
2022/01/22 13:02:50;;;;;;;9.20;2.22;;;;;;;;;;4977708;28;20030;-57
2022/01/22 13:05:18;;;;;;;6.85;1.55;;;;;;;;;;4981030;28;20030;-57
2022/01/22 13:07:53;;;;;;;10.50;1.90;;;;;;;;;;4977170;28;20057;-58
2022/01/22 13:10:28;;;;;;;10.57;2.10;;;;;;;;;;4979138;28;20046;-56
2022/01/22 13:12:56;;;;;;;8.68;1.65;;;;;;;;;;4979744;28;20038;-58
2022/01/22 13:15:30;;;;;;;10.00;2.28;;;;;;;;;;4978363;28;20030;-58
2022/01/22 13:18:03;;;;;;;19.48;1.85;;;;;;;;;;4978531;28;20069;-58
2022/01/22 13:20:31;;;;;;;11.23;1.63;;;;;;;;;;4964256;28;20085;-58
2022/01/22 13:23:02;;;;;;;15.38;1.77;;;;;;;;;;4977404;28;20046;-58
2022/01/22 13:25:28;;;;;;;5.28;1.30;;;;;;;;;;4973784;28;20061;-58
2022/01/22 13:28:10;;;;;;;6.43;1.17;;;;;;;;;;4962950;28;20042;-58
2022/01/22 13:30:45;;;;;;;4.57;1.30;;;;;;;;;;4962287;28;20042;-58
2022/01/22 13:33:18;;;;;;;7.75;1.40;;;;;;;;;;4961635;28;20049;-58
2022/01/22 13:35:56;;;;;;;4.88;1.00;;;;;;;;;;4959935;28;20033;-58
2022/01/22 13:38:51;;;;;;;10.27;1.58;;;;;;;;;;4977599;28;20609;-58
2022/01/22 13:49:30;;;;;;;;;;;;;;;;;;4979446;28;20053;-57
2022/01/22 13:51:59;;;;;;;5.75;1.45;;;;;;;;;;4960366;28;19952;-58
2022/01/22 13:54:29;;;;;;;11.15;1.30;;;;;;;;;;4978306;28;20124;-58
2022/01/22 13:56:57;;;;;;;18.55;1.83;;;;;;;;;;4970006;28;20045;-59
2022/01/22 13:59:23;;;;;;;12.45;1.42;;;;;;;;;;4979317;28;20242;-59
2022/01/22 14:04:58;;;;;;;13.30;1.48;;;;;;;;;;4979985;28;20042;-58
2022/01/22 14:07:32;;;;;;;4.35;1.30;;;;;;;;;;4962405;28;20124;-58
2022/01/22 14:10:05;;;;;;;15.00;1.85;;;;;;;;;;4979263;28;20030;-58
2022/01/22 14:12:49;;;;;;;4.72;1.23;;;;;;;;;;4977776;28;20025;-59
2022/01/22 14:15:28;;;;;;;4.22;1.00;;;;;;;;;;4978549;28;20172;-58
2022/01/22 14:18:07;;;;;;;3.63;0.88;;;;;;;;;;4977924;28;20041;-57
2022/01/22 14:20:36;;;;;;;5.35;1.08;;;;;;;;;;4976372;28;20667;-57
2022/01/22 14:23:11;;;;;;;9.38;1.38;;;;;;;;;;4945698;28;21519;-57
2022/01/22 14:25:56;;;;;;;5.88;0.90;;;;;;;;;;4965578;28;20097;-57
2022/01/22 14:28:36;;;;;;;8.43;1.00;;;;;;;;;;4949527;28;20037;-57
2022/01/22 14:31:15;;;;;;;12.27;1.00;;;;;;;;;;4975539;28;20052;-59
2022/01/22 14:33:45;;;;;;;12.68;0.82;;;;;;;;;;4962857;28;20034;-58
2022/01/22 14:36:17;;;;;;;3.47;0.75;;;;;;;;;;4951239;28;20465;-58
2022/01/22 14:38:53;;;;;;;7.07;1.40;;;;;;;;;;4966637;28;20033;-56
2022/01/22 14:46:53;;;;;;;5.93;0.82;;;;;;;;;;4977424;28;21267;-57
2022/01/22 14:49:28;;;;;;;6.38;0.73;;;;;;;;;;4978286;28;20053;-58
2022/01/22 14:51:58;;;;;;;4.25;1.05;;;;;;;;;;4974324;28;20497;-59
2022/01/22 14:54:27;;;;;;;3.30;0.60;;;;;;;;;;4978004;28;20038;-58
2022/01/22 14:56:55;;;;;;;3.05;0.98;;;;;;;;;;4978646;28;20030;-57
2022/01/22 14:59:22;;;;;;;8.60;1.10;;;;;;;;;;4967490;28;20042;-57
2022/01/22 15:01:52;;;;;;;7.07;1.05;;;;;;;;;;4963300;28;20042;-58
2022/01/22 15:04:20;;;;;;;6.35;0.85;;;;;;;;;;4964497;28;20061;-57
2022/01/22 15:06:46;;;;;;;8.38;0.95;;;;;;;;;;4973109;28;20030;-57
2022/01/22 15:09:14;;;;;;;4.22;0.80;;;;;;;;;;4944482;28;20050;-58
2022/01/22 15:11:44;;;;;;;9.50;1.02;;;;;;;;;;4976553;28;20030;-58
2022/01/22 15:14:12;;;;;;;4.97;0.90;;;;;;;;;;4976437;28;20122;-58
2022/01/22 15:16:46;;;;;;;9.20;1.10;;;;;;;;;;4974080;28;20069;-58
2022/01/22 15:19:19;;;;;;;16.63;1.45;;;;;;;;;;4964229;28;20652;-58
2022/01/22 15:21:49;;;;;;;7.32;1.10;;;;;;;;;;4965488;28;20038;-58
2022/01/22 15:24:20;;;;;;;7.95;0.80;;;;;;;;;;4976009;28;20026;-58
2022/01/22 15:26:51;;;;;;;5.10;0.93;;;;;;;;;;4976025;28;20160;-58
2022/01/22 15:29:25;;;;;;;11.00;1.25;;;;;;;;;;4976932;28;20236;-58
2022/01/22 15:37:05;;;;;;;4.20;0.70;;;;;;;;;;4959805;28;20046;-58
2022/01/22 15:39:33;;;;;;;;;;;;;;;;;;4962228;28;20034;-58
2022/01/22 15:41:58;;;;;;;1.55;0.80;;;;;;;;;;4974980;28;19937;-57
2022/01/22 15:44:26;;;;;;;2.38;0.85;;;;;;;;;;4976427;28;21948;-57
2022/01/22 15:46:53;;;;;;;5.28;0.98;;;;;;;;;;4968318;28;20046;-58
2022/01/22 15:49:26;;;;;;;4.20;1.17;;;;;;;;;;4960413;28;20043;-58
2022/01/22 15:51:58;;;;;;;4.10;1.02;;;;;;;;;;4976588;28;20040;-58
2022/01/22 15:54:26;;;;;;;10.15;0.95;;;;;;;;;;4975829;28;20038;-58
2022/01/22 15:56:59;;;;;;;5.55;1.20;;;;;;;;;;4976050;28;20030;-58
2022/01/22 15:59:25;;;;;;;8.25;1.15;;;;;;;;;;4976508;28;20030;-59
2022/01/22 16:01:51;;;;;;;5.95;1.02;;;;;;;;;;4963584;28;20641;-60
2022/01/22 16:04:17;;;;;;;10.80;1.88;;;;;;;;;;4964945;28;20579;-58
2022/01/22 16:06:58;;;;;;;5.93;1.52;;;;;;;;;;4965365;28;20123;-59
2022/01/22 16:09:27;;;;;;;5.82;1.20;;;;;;;;;;4975183;28;20945;-58
2022/01/22 16:11:52;;;;;;;5.28;1.25;;;;;;;;;;4966896;28;20030;-58
2022/01/22 16:14:20;;;;;;;3.95;1.40;;;;;;;;;;4976593;28;20085;-58
2022/01/22 16:16:46;;;;;;;9.50;1.30;;;;;;;;;;4957555;28;21801;-58
2022/01/22 16:19:18;;;;;;;10.13;1.20;;;;;;;;;;4961873;28;20484;-59
2022/01/22 16:21:43;;;;;;;10.40;1.58;;;;;;;;;;4973736;28;20145;-58
2022/01/22 16:24:12;;;;;;;4.63;1.63;;;;;;;;;;4974756;28;20042;-59
2022/01/22 16:26:40;;;;;;;4.70;1.48;;;;;;;;;;4941086;28;20054;-58
2022/01/22 16:29:08;;;;;;;5.47;1.60;;;;;;;;;;4956557;28;20133;-58
2022/01/22 16:31:39;;;;;;;5.85;1.65;;;;;;;;;;4970032;28;20034;-59
2022/01/22 16:34:05;;;;;;;11.20;2.40;;;;;;;;;;4958365;28;20034;-59
2022/01/22 16:36:34;;;;;;;9.77;1.55;;;;;;;;;;4955290;28;20037;-58
2022/01/22 16:39:07;;;;;;;8.75;1.70;;;;;;;;;;4960388;28;20660;-59
2022/01/22 16:41:37;;;;;;;6.80;1.40;;;;;;;;;;4954337;28;20460;-58
2022/01/22 16:44:22;;;;;;;1.77;1.05;;;;;;;;;;4972316;28;20034;-58
2022/01/22 16:51:19;;;;;;;6.60;0.95;;;;;;;;;;4953887;28;20136;-58
2022/01/22 16:55:13;;;;;;;6.87;1.93;;;;;;;;;;4954737;28;20034;-58
2022/01/22 16:57:43;;;;;;;7.93;1.48;;;;;;;;;;4957335;28;20069;-58
2022/01/22 17:00:14;;;;;;;6.78;1.67;;;;;;;;;;4952898;28;20030;-58
2022/01/22 17:02:44;;;;;;;3.47;1.30;;;;;;;;;;4956440;28;20039;-58
2022/01/22 17:05:14;;;;;;;6.30;1.60;;;;;;;;;;4956348;28;21035;-58
2022/01/22 17:07:57;;;;;;;7.72;1.70;;;;;;;;;;4956815;28;20031;-59
2022/01/22 17:15:55;;;;;;;11.05;2.70;;;;;;;;;;4956534;28;20239;-58